Time,TemperatureF,DewpointF,PressureIn,WindDirection,WindDirectionDegrees,WindSpeedMPH,WindSpeedGustMPH,Humidity,HourlyPrecipIn,Conditions,Clouds,dailyrainin,SoftwareType,DateUTC
2013-04-11 00:22:00,49.5,22.0,29.87,NNE,12,6.0,11.0,34,0.00,,,0.00,weatherlink.com 1.10,2013-04-11 06:22:00,
2013-04-11 00:37:00,49.1,22.0,29.87,NW,314,5.0,11.0,34,0.00,,,0.00,weatherlink.com 1.10,2013-04-11 06:37:00,
2013-04-11 00:52:00,48.8,21.0,29.87,NNW,344,7.0,13.0,33,0.00,,,0.00,weatherlink.com 1.10,2013-04-11 06:52:00,
2013-04-11 01:07:00,48.4,20.0,29.88,NNE,19,5.0,12.0,33,0.00,,,0.00,weatherlink.com 1.10,2013-04-11 07:07:00,
2013-04-11 01:22:00,48.2,21.0,29.88,NW,326,3.0,12.0,34,0.00,,,0.00,weatherlink.com 1.10,2013-04-11 07:22:00,
2013-04-11 01:37:00,47.8,21.0,29.88,North,349,6.0,8.0,34,0.00,,,0.00,weatherlink.com 1.10,2013-04-11 07:37:00,
2013-04-11 01:52:00,47.5,20.0,29.87,North,354,4.0,5.0,34,0.00,,,0.00,weatherlink.com 1.10,2013-04-11 07:52:00,
2013-04-11 02:07:00,47.0,20.0,29.87,NNW,338,3.0,6.0,34,0.00,,,0.00,weatherlink.com 1.10,2013-04-11 08:07:00,
2013-04-11 02:22:00,47.2,19.0,29.86,NNW,330,1.0,7.0,33,0.00,,,0.00,weatherlink.com 1.10,2013-04-11 08:22:00,
2013-04-11 02:37:00,47.3,19.0,29.86,North,6,3.0,6.0,32,0.00,,,0.00,weatherlink.com 1.10,2013-04-11 08:37:00,
2013-04-11 02:53:00,46.4,20.0,29.86,North,349,1.0,4.0,35,0.00,,,0.00,weatherlink.com 1.10,2013-04-11 08:53:00,
2013-04-11 03:08:00,45.6,19.0,29.87,NNW,348,1.0,4.0,35,0.00,,,0.00,weatherlink.com 1.10,2013-04-11 09:08:00,
2013-04-11 03:23:00,44.9,19.0,29.88,North,4,1.0,3.0,35,0.00,,,0.00,weatherlink.com 1.10,2013-04-11 09:23:00,
2013-04-11 03:38:00,44.0,19.0,29.88,North,6,0.0,1.0,37,0.00,,,0.00,weatherlink.com 1.10,2013-04-11 09:38:00,
2013-04-11 03:53:00,43.3,20.0,29.88,NNE,18,0.0,0.0,39,0.00,,,0.00,weatherlink.com 1.10,2013-04-11 09:53:00,
2013-04-11 04:08:00,43.3,19.0,29.87,NNE,15,2.0,3.0,38,0.00,,,0.00,weatherlink.com 1.10,2013-04-11 10:08:00,
2013-04-11 04:23:00,42.7,19.0,29.87,NNE,25,0.0,0.0,39,0.00,,,0.00,weatherlink.com 1.10,2013-04-11 10:23:00,
2013-04-11 04:38:00,42.8,19.0,29.87,NE,41,1.0,3.0,39,0.00,,,0.00,weatherlink.com 1.10,2013-04-11 10:38:00,
2013-04-11 04:53:00,43.6,19.0,29.87,NNW,336,2.0,4.0,38,0.00,,,0.00,weatherlink.com 1.10,2013-04-11 10:53:00,
2013-04-11 05:08:00,42.7,19.0,29.87,North,5,0.0,0.0,39,0.00,,,0.00,weatherlink.com 1.10,2013-04-11 11:08:00,
2013-04-11 05:23:00,41.3,20.0,29.87,SW,222,0.0,3.0,42,0.00,,,0.00,weatherlink.com 1.10,2013-04-11 11:23:00,
2013-04-11 05:38:00,41.1,19.0,29.86,ENE,70,2.0,3.0,42,0.00,,,0.00,weatherlink.com 1.10,2013-04-11 11:38:00,
2013-04-11 05:53:00,41.4,19.0,29.86,North,354,3.0,3.0,41,0.00,,,0.00,weatherlink.com 1.10,2013-04-11 11:53:00,
2013-04-11 06:08:00,41.7,19.0,29.86,NNW,338,0.0,2.0,41,0.00,,,0.00,weatherlink.com 1.10,2013-04-11 12:08:00,
2013-04-11 06:23:00,41.3,19.0,29.87,North,1,0.0,2.0,41,0.00,,,0.00,weatherlink.com 1.10,2013-04-11 12:23:00,
2013-04-11 06:38:00,41.7,19.0,29.87,North,8,1.0,3.0,40,0.00,,,0.00,weatherlink.com 1.10,2013-04-11 12:38:00,
2013-04-11 06:53:00,41.9,19.0,29.87,North,351,3.0,3.0,40,0.00,,,0.00,weatherlink.com 1.10,2013-04-11 12:53:00,
2013-04-11 07:08:00,41.7,19.0,29.87,NNE,19,0.0,0.0,40,0.00,,,0.00,weatherlink.com 1.10,2013-04-11 13:08:00,
2013-04-11 07:23:00,42.3,19.0,29.88,NNW,346,2.0,5.0,39,0.00,,,0.00,weatherlink.com 1.10,2013-04-11 13:23:00,
2013-04-11 07:38:00,42.6,20.0,29.89,NW,323,0.0,2.0,40,0.00,,,0.00,weatherlink.com 1.10,2013-04-11 13:38:00,
2013-04-11 07:53:00,42.7,21.0,29.89,NW,323,1.0,3.0,42,0.00,,,0.00,weatherlink.com 1.10,2013-04-11 13:53:00,
2013-04-11 08:08:00,45.1,21.0,29.88,North,354,1.0,4.0,38,0.00,,,0.00,weatherlink.com 1.10,2013-04-11 14:08:00,
2013-04-11 08:23:00,46.5,20.0,29.88,North,351,3.0,4.0,35,0.00,,,0.00,weatherlink.com 1.10,2013-04-11 14:23:00,
2013-04-11 08:38:00,47.6,20.0,29.89,NW,312,2.0,5.0,34,0.00,,,0.00,weatherlink.com 1.10,2013-04-11 14:38:00,
2013-04-11 08:53:00,48.4,20.0,29.89,WNW,293,3.0,6.0,32,0.00,,,0.00,weatherlink.com 1.10,2013-04-11 14:53:00,
2013-04-11 09:09:00,48.9,21.0,29.89,NW,312,4.0,8.0,33,0.00,,,0.00,weatherlink.com 1.10,2013-04-11 15:09:00,
2013-04-11 09:23:00,49.5,21.0,29.89,NW,311,4.0,6.0,32,0.00,,,0.00,weatherlink.com 1.10,2013-04-11 15:23:00,
2013-04-11 09:38:00,50.1,20.0,29.89,West,262,2.0,6.0,30,0.00,,,0.00,weatherlink.com 1.10,2013-04-11 15:38:00,
2013-04-11 09:53:00,50.3,20.0,29.89,WNW,291,4.0,8.0,30,0.00,,,0.00,weatherlink.com 1.10,2013-04-11 15:53:00,
2013-04-11 10:08:00,50.8,19.0,29.89,NW,308,5.0,9.0,29,0.00,,,0.00,weatherlink.com 1.10,2013-04-11 16:08:00,
2013-04-11 10:23:00,51.5,20.0,29.89,WNW,284,3.0,10.0,29,0.00,,,0.00,weatherlink.com 1.10,2013-04-11 16:23:00,
2013-04-11 10:38:00,53.0,22.0,29.89,WNW,300,2.0,8.0,30,0.00,,,0.00,weatherlink.com 1.10,2013-04-11 16:38:00,
2013-04-11 10:53:00,54.0,19.0,29.89,NW,307,9.0,11.0,25,0.00,,,0.00,weatherlink.com 1.10,2013-04-11 16:53:00,
2013-04-11 11:08:00,55.2,21.0,29.88,WNW,290,5.0,11.0,26,0.00,,,0.00,weatherlink.com 1.10,2013-04-11 17:08:00,
2013-04-11 11:23:00,55.9,21.0,29.88,WNW,296,3.0,12.0,26,0.00,,,0.00,weatherlink.com 1.10,2013-04-11 17:23:00,
2013-04-11 11:39:00,56.9,19.0,29.87,West,269,3.0,10.0,23,0.00,,,0.00,weatherlink.com 1.10,2013-04-11 17:39:00,
2013-04-11 11:54:00,57.9,19.0,29.86,NW,305,6.0,13.0,22,0.00,,,0.00,weatherlink.com 1.10,2013-04-11 17:54:00,
2013-04-11 12:09:00,58.5,20.0,29.86,West,259,6.0,14.0,22,0.00,,,0.00,weatherlink.com 1.10,2013-04-11 18:09:00,
2013-04-11 12:24:00,59.2,19.0,29.85,NW,311,8.0,13.0,21,0.00,,,0.00,weatherlink.com 1.10,2013-04-11 18:24:00,
2013-04-11 12:39:00,59.9,17.0,29.85,WNW,298,5.0,12.0,19,0.00,,,0.00,weatherlink.com 1.10,2013-04-11 18:39:00,
2013-04-11 12:54:00,60.5,17.0,29.84,WSW,246,2.0,11.0,18,0.00,,,0.00,weatherlink.com 1.10,2013-04-11 18:54:00,
2013-04-11 13:09:00,61.1,17.0,29.84,NW,305,6.0,14.0,18,0.00,,,0.00,weatherlink.com 1.10,2013-04-11 19:09:00,
2013-04-11 13:24:00,62.0,19.0,29.83,WNW,301,9.0,13.0,19,0.00,,,0.00,weatherlink.com 1.10,2013-04-11 19:24:00,
2013-04-11 13:39:00,62.4,18.0,29.82,NW,308,8.0,11.0,18,0.00,,,0.00,weatherlink.com 1.10,2013-04-11 19:39:00,
2013-04-11 13:54:00,62.4,19.0,29.81,NW,314,8.0,13.0,19,0.00,,,0.00,weatherlink.com 1.10,2013-04-11 19:54:00,
2013-04-11 14:09:00,63.5,15.0,29.81,WSW,239,2.0,11.0,15,0.00,,,0.00,weatherlink.com 1.10,2013-04-11 20:09:00,
2013-04-11 14:24:00,64.2,17.0,29.81,WNW,287,7.0,12.0,16,0.00,,,0.00,weatherlink.com 1.10,2013-04-11 20:24:00,
2013-04-11 14:39:00,65.1,16.0,29.80,SW,228,6.0,11.0,15,0.00,,,0.00,weatherlink.com 1.10,2013-04-11 20:39:00,
2013-04-11 15:09:00,65.4,16.0,29.78,NW,304,5.0,10.0,15,0.00,,,0.00,weatherlink.com 1.10,2013-04-11 21:09:00,
2013-04-11 15:24:00,66.4,17.0,29.78,WNW,293,7.0,10.0,15,0.00,,,0.00,weatherlink.com 1.10,2013-04-11 21:24:00,
2013-04-11 15:39:00,66.6,17.0,29.77,WNW,282,9.0,12.0,15,0.00,,,0.00,weatherlink.com 1.10,2013-04-11 21:39:00,
2013-04-11 15:54:00,67.0,16.0,29.75,North,349,9.0,9.0,14,0.00,,,0.00,weatherlink.com 1.10,2013-04-11 21:54:00,
2013-04-11 16:09:00,67.7,13.0,29.75,SW,214,3.0,9.0,12,0.00,,,0.00,weatherlink.com 1.10,2013-04-11 22:09:00,
2013-04-11 16:24:00,68.5,16.0,29.74,NNW,331,5.0,9.0,13,0.00,,,0.00,weatherlink.com 1.10,2013-04-11 22:24:00,
2013-04-11 16:39:00,69.1,14.0,29.73,WSW,249,8.0,12.0,12,0.00,,,0.00,weatherlink.com 1.10,2013-04-11 22:39:00,
2013-04-11 16:54:00,70.1,15.0,29.73,WSW,248,2.0,10.0,12,0.00,,,0.00,weatherlink.com 1.10,2013-04-11 22:54:00,
2013-04-11 17:10:00,70.1,15.0,29.72,WNW,293,4.0,10.0,12,0.00,,,0.00,weatherlink.com 1.10,2013-04-11 23:10:00,
2013-04-11 17:25:00,70.3,13.0,29.72,WSW,249,3.0,8.0,11,0.00,,,0.00,weatherlink.com 1.10,2013-04-11 23:25:00,
2013-04-11 17:40:00,70.7,14.0,29.72,WSW,257,4.0,7.0,11,0.00,,,0.00,weatherlink.com 1.10,2013-04-11 23:40:00,
2013-04-11 17:55:00,71.1,14.0,29.71,WSW,239,6.0,8.0,11,0.00,,,0.00,weatherlink.com 1.10,2013-04-11 23:55:00,
2013-04-11 18:10:00,70.8,14.0,29.71,SW,236,7.0,13.0,11,0.00,,,0.00,weatherlink.com 1.10,2013-04-12 00:10:00,
2013-04-11 18:25:00,71.3,14.0,29.71,SW,232,6.0,8.0,11,0.00,,,0.00,weatherlink.com 1.10,2013-04-12 00:25:00,
2013-04-11 18:40:00,71.0,14.0,29.70,SW,225,4.0,7.0,11,0.00,,,0.00,weatherlink.com 1.10,2013-04-12 00:40:00,
2013-04-11 18:55:00,70.3,13.0,29.70,SW,229,4.0,7.0,11,0.00,,,0.00,weatherlink.com 1.10,2013-04-12 00:55:00,
2013-04-11 19:10:00,69.3,12.0,29.70,SW,215,5.0,7.0,11,0.00,,,0.00,weatherlink.com 1.10,2013-04-12 01:10:00,
2013-04-11 19:25:00,68.5,14.0,29.70,SW,235,2.0,9.0,12,0.00,,,0.00,weatherlink.com 1.10,2013-04-12 01:25:00,
2013-04-11 19:40:00,67.6,13.0,29.70,SW,215,1.0,6.0,12,0.00,,,0.00,weatherlink.com 1.10,2013-04-12 01:40:00,
2013-04-11 19:55:00,66.7,12.0,29.70,SE,125,2.0,6.0,12,0.00,,,0.00,weatherlink.com 1.10,2013-04-12 01:55:00,
2013-04-11 20:10:00,66.1,14.0,29.70,WSW,246,1.0,6.0,13,0.00,,,0.00,weatherlink.com 1.10,2013-04-12 02:10:00,
2013-04-11 20:25:00,65.3,13.0,29.70,SSE,152,2.0,6.0,13,0.00,,,0.00,weatherlink.com 1.10,2013-04-12 02:25:00,
2013-04-11 20:40:00,64.7,13.0,29.71,SSE,166,0.0,2.0,13,0.00,,,0.00,weatherlink.com 1.10,2013-04-12 02:40:00,
2013-04-11 20:55:00,64.1,15.0,29.71,NW,311,0.0,2.0,15,0.00,,,0.00,weatherlink.com 1.10,2013-04-12 02:55:00,
2013-04-11 21:10:00,64.9,14.0,29.72,West,276,1.0,6.0,14,0.00,,,0.00,weatherlink.com 1.10,2013-04-12 03:10:00,
2013-04-11 21:25:00,64.0,14.0,29.72,SSW,210,0.0,2.0,14,0.00,,,0.00,weatherlink.com 1.10,2013-04-12 03:25:00,
2013-04-11 21:40:00,63.7,12.0,29.73,ESE,121,2.0,3.0,13,0.00,,,0.00,weatherlink.com 1.10,2013-04-12 03:40:00,
2013-04-11 21:55:00,63.2,11.0,29.73,SW,229,1.0,1.0,13,0.00,,,0.00,weatherlink.com 1.10,2013-04-12 03:55:00,
2013-04-11 22:10:00,62.8,11.0,29.73,SE,130,0.0,2.0,13,0.00,,,0.00,weatherlink.com 1.10,2013-04-12 04:10:00,
2013-04-11 22:25:00,62.5,9.0,29.74,ESE,112,0.0,2.0,12,0.00,,,0.00,weatherlink.com 1.10,2013-04-12 04:25:00,
2013-04-11 22:40:00,63.0,9.0,29.74,East,80,0.0,2.0,12,0.00,,,0.00,weatherlink.com 1.10,2013-04-12 04:40:00,
2013-04-11 22:55:00,62.4,9.0,29.74,SE,138,1.0,3.0,12,0.00,,,0.00,weatherlink.com 1.10,2013-04-12 04:55:00,
2013-04-11 23:10:00,62.5,7.0,29.74,SSE,158,0.0,2.0,11,0.00,,,0.00,weatherlink.com 1.10,2013-04-12 05:10:00,
2013-04-11 23:25:00,62.1,7.0,29.73,SSE,158,1.0,2.0,11,0.00,,,0.00,weatherlink.com 1.10,2013-04-12 05:25:00,
2013-04-11 23:40:00,61.8,8.0,29.74,East,80,1.0,2.0,12,0.00,,,0.00,weatherlink.com 1.10,2013-04-12 05:40:00,
2013-04-11 23:55:00,61.4,10.0,29.74,SW,219,0.0,1.0,13,0.00,,,0.00,weatherlink.com 1.10,2013-04-12 05:55:00,